Disclaimer

Please do not use the information listed here in-flight or in-navigation, as they are not provided to us by the airports but are provided by volunteers, so they might be outdated.

Search


Regions


Airport information page

Radio informations:
PRAIA TWR - 118.2 MHz
PRAIA APP - 118.2 MHz

Airport informations:
Latitude: 14° 55' 28.16" N
Longitude: 023° 29' 36.68" W
Elevation: 230 feet - 70 meters
Operating hours: Remarks
Operating agency: Civil government, landing fees and diplomatic clearance may be required
Timezone: UTC-1
Fuel: Jet A1, without icing nhibitor.

100/130 MIL Spec, low lead, aviation gasoline (BLUE)

Runway information:
03R/21L - 6876 x 148 feet< - >2096 x 45 meters
03L/21R - 4209 x 98 feet< - >1283 x 30 meters

Recent METARs:
GVNP 130300Z 03015KT 9999 SCT016 23/18 Q1014 NOSIG
GVNP 130300Z 03015KT 9999 SCT016 23/18 Q1014 NOSIG
GVNP 130400Z 03011KT 9999 SCT016 23/17 Q1013 NOSIG

Airport on the map: